Time;durP1;ratioP1;P1;durP2;ratioP2;P2;SDS_P1;SDS_P2;PMS_P1;PMS_P2;Temp;Humidity;BMP_temperature;BMP_pressure;BME280_temperature;BME280_humidity;BME280_pressure;Samples;Min_cycle;Max_cycle;Signal;HPM_P1;HPM_P2
2022/04/18 00:01:50;;;;;;;18.63;8.55;;;8.70;99.90;;;;;;5010155;28;20041;-63
2022/04/18 00:04:16;;;;;;;16.50;9.45;;;8.70;99.90;;;;;;5010192;28;20458;-63
2022/04/18 00:06:42;;;;;;;18.23;10.15;;;8.80;99.90;;;;;;5009886;28;20045;-63
2022/04/18 00:09:08;;;;;;;23.85;10.98;;;8.90;99.90;;;;;;5009695;28;20018;-63
2022/04/18 00:11:34;;;;;;;23.50;12.75;;;9.00;99.90;;;;;;5009794;28;20397;-63
2022/04/18 00:14:00;;;;;;;24.80;12.45;;;9.10;99.90;;;;;;5010034;28;20030;-63
2022/04/18 00:16:26;;;;;;;24.52;12.45;;;9.20;99.90;;;;;;5010398;28;20050;-63
2022/04/18 00:18:51;;;;;;;26.65;13.43;;;9.20;99.90;;;;;;5009880;28;20519;-63
2022/04/18 00:21:18;;;;;;;23.13;11.73;;;9.30;99.90;;;;;;5011211;28;20033;-62
2022/04/18 00:23:44;;;;;;;30.85;15.63;;;9.40;99.90;;;;;;5029518;28;20030;-63
2022/04/18 00:26:10;;;;;;;26.27;14.30;;;9.40;99.90;;;;;;5018631;28;20037;-63
2022/04/18 00:28:36;;;;;;;27.70;13.52;;;9.50;99.90;;;;;;5009787;28;20076;-63
2022/04/18 00:31:02;;;;;;;27.42;14.32;;;9.50;99.90;;;;;;5009684;28;20038;-63
2022/04/18 00:33:27;;;;;;;31.23;16.30;;;9.50;99.90;;;;;;5010003;28;20036;-63
2022/04/18 00:35:53;;;;;;;27.35;14.32;;;9.50;99.90;;;;;;5009908;28;20053;-63
2022/04/18 00:38:19;;;;;;;30.58;13.77;;;9.40;99.90;;;;;;5010661;28;20539;-63
2022/04/18 00:40:45;;;;;;;27.65;15.75;;;9.40;99.90;;;;;;5013311;28;20029;-63
2022/04/18 00:43:11;;;;;;;31.55;15.93;;;9.40;99.90;;;;;;5013438;28;20096;-63
2022/04/18 00:45:36;;;;;;;32.92;16.90;;;9.30;99.90;;;;;;5013438;28;20080;-63
2022/04/18 00:48:03;;;;;;;32.78;17.38;;;9.30;99.90;;;;;;5013468;28;20037;-63
2022/04/18 00:50:31;;;;;;;37.92;17.35;;;9.30;99.90;;;;;;5013284;28;20045;-63
2022/04/18 00:52:57;;;;;;;33.95;17.27;;;9.30;99.90;;;;;;5013095;28;20080;-63
2022/04/18 00:55:26;;;;;;;32.92;17.42;;;9.30;99.90;;;;;;5013240;28;20499;-63
2022/04/18 00:57:54;;;;;;;36.95;19.48;;;9.30;99.90;;;;;;5013324;28;20382;-63
2022/04/18 01:00:20;;;;;;;32.72;17.67;;;9.30;99.90;;;;;;5013027;28;20420;-63
2022/04/18 01:02:46;;;;;;;37.92;19.63;;;9.20;99.90;;;;;;5010656;28;20034;-63
2022/04/18 01:05:12;;;;;;;41.10;20.17;;;9.20;99.90;;;;;;5009736;28;20393;-63
2022/04/18 01:07:39;;;;;;;36.72;19.38;;;9.20;99.90;;;;;;5011492;28;20160;-63
2022/04/18 01:10:05;;;;;;;40.63;21.02;;;9.20;99.90;;;;;;5012519;28;20040;-63
2022/04/18 01:12:31;;;;;;;41.95;20.60;;;9.20;99.90;;;;;;5015657;28;20030;-63
2022/04/18 01:14:57;;;;;;;38.50;19.98;;;9.20;99.90;;;;;;5013347;28;20022;-63
2022/04/18 01:17:23;;;;;;;43.28;20.70;;;9.20;99.90;;;;;;5013026;28;20034;-63
2022/04/18 01:19:48;;;;;;;34.55;18.55;;;9.10;99.90;;;;;;5013008;28;20444;-63
2022/04/18 01:22:14;;;;;;;36.00;19.85;;;9.10;99.90;;;;;;5021765;28;20411;-63
2022/04/18 01:30:11;;;;;;;42.08;21.42;;;9.10;99.90;;;;;;5032600;28;20040;-61
2022/04/18 01:32:36;;;;;;;43.72;22.17;;;9.20;99.90;;;;;;5032399;28;20075;-61
2022/04/18 01:35:02;;;;;;;43.35;22.42;;;9.20;99.90;;;;;;5032633;28;20112;-61
2022/04/18 01:37:28;;;;;;;39.95;21.33;;;9.20;99.90;;;;;;5032067;28;20040;-62
2022/04/18 01:39:53;;;;;;;46.30;21.42;;;9.20;99.90;;;;;;5031859;28;20041;-61
2022/04/18 01:42:19;;;;;;;43.08;21.00;;;9.10;99.90;;;;;;5032069;28;20033;-61
2022/04/18 01:44:45;;;;;;;33.33;17.80;;;9.10;99.90;;;;;;5032085;28;20033;-61
2022/04/18 01:47:10;;;;;;;47.10;20.25;;;9.10;99.90;;;;;;5031114;28;20487;-61
2022/04/18 01:49:36;;;;;;;35.17;17.30;;;9.10;99.90;;;;;;5016577;28;20460;-61
2022/04/18 01:52:02;;;;;;;31.92;17.30;;;9.30;99.90;;;;;;5016486;28;20033;-62
2022/04/18 01:54:27;;;;;;;30.67;14.32;;;9.40;99.90;;;;;;5028892;28;20402;-62
2022/04/18 01:56:53;;;;;;;34.38;15.52;;;9.40;99.90;;;;;;5028493;28;20447;-62
2022/04/18 01:59:18;;;;;;;32.08;15.25;;;9.30;99.90;;;;;;5028603;28;20032;-62
2022/04/18 02:01:44;;;;;;;30.20;14.73;;;9.30;99.90;;;;;;5028745;28;20038;-62
2022/04/18 02:04:10;;;;;;;27.70;14.80;;;9.20;99.90;;;;;;5029907;28;20419;-62
2022/04/18 02:06:35;;;;;;;33.63;17.85;;;9.20;99.90;;;;;;5031737;28;20026;-62
2022/04/18 02:09:01;;;;;;;36.47;17.15;;;9.30;99.90;;;;;;5031449;28;20029;-62
2022/04/18 02:11:27;;;;;;;38.13;18.08;;;9.30;99.90;;;;;;5031669;28;20417;-62
2022/04/18 02:13:53;;;;;;;39.22;18.25;;;9.40;99.90;;;;;;5031448;28;20033;-62
2022/04/18 02:16:19;;;;;;;38.33;17.92;;;9.50;99.90;;;;;;5031538;28;20028;-60
2022/04/18 02:18:46;;;;;;;36.63;16.85;;;9.60;99.90;;;;;;5031720;28;20428;-62
2022/04/18 02:21:12;;;;;;;37.83;17.70;;;9.60;99.90;;;;;;5031465;28;20431;-62
2022/04/18 02:23:41;;;;;;;44.60;19.90;;;9.70;99.90;;;;;;5029285;28;20576;-62
2022/04/18 02:26:08;;;;;;;46.72;19.55;;;9.80;99.90;;;;;;5011929;28;20045;-62
2022/04/18 02:28:33;;;;;;;44.08;20.52;;;9.80;99.90;;;;;;5008523;28;20403;-62
2022/04/18 02:30:59;;;;;;;41.70;19.17;;;9.80;99.90;;;;;;5008156;28;20048;-62
2022/04/18 02:33:25;;;;;;;46.75;20.23;;;9.80;99.90;;;;;;5008576;28;20044;-62
2022/04/18 02:35:50;;;;;;;40.38;18.02;;;9.80;99.90;;;;;;5008088;28;20381;-63
2022/04/18 02:38:17;;;;;;;44.70;19.42;;;9.70;99.90;;;;;;5009989;28;20022;-62
2022/04/18 02:40:43;;;;;;;48.15;21.20;;;9.60;99.90;;;;;;5011232;28;20030;-62
2022/04/18 02:43:09;;;;;;;47.03;19.48;;;9.60;99.90;;;;;;5011229;28;20068;-62
2022/04/18 02:45:34;;;;;;;44.40;18.40;;;9.50;99.90;;;;;;5011140;28;20037;-62
2022/04/18 02:48:00;;;;;;;48.92;20.20;;;9.40;99.90;;;;;;5011253;28;20026;-62
2022/04/18 02:50:26;;;;;;;53.17;19.98;;;9.40;99.90;;;;;;5011112;28;20389;-63
2022/04/18 02:52:53;;;;;;;50.15;19.15;;;9.30;99.90;;;;;;5010843;28;20050;-62
2022/04/18 02:55:18;;;;;;;49.38;20.73;;;9.20;99.90;;;;;;5010929;28;20150;-62
2022/04/18 02:57:44;;;;;;;49.05;19.23;;;9.20;99.90;;;;;;5010924;28;20113;-62
2022/04/18 03:00:11;;;;;;;50.63;20.17;;;9.10;99.90;;;;;;5010808;28;20496;-62
2022/04/18 03:02:38;;;;;;;51.70;20.27;;;9.00;99.90;;;;;;5010271;28;20125;-62
2022/04/18 03:05:06;;;;;;;52.45;21.20;;;9.10;99.90;;;;;;5010956;28;20064;-62
2022/04/18 03:07:33;;;;;;;59.28;20.90;;;9.00;99.90;;;;;;5011048;28;20026;-61
2022/04/18 03:09:59;;;;;;;57.28;21.60;;;8.90;99.90;;;;;;5010562;28;20472;-61
2022/04/18 03:12:25;;;;;;;58.28;20.90;;;8.90;99.90;;;;;;5010601;28;20041;-61
2022/04/18 03:14:51;;;;;;;62.72;23.25;;;8.80;99.90;;;;;;5010545;28;20030;-61
2022/04/18 03:17:17;;;;;;;62.72;23.33;;;8.80;99.90;;;;;;5010541;28;20067;-61
2022/04/18 03:19:43;;;;;;;71.40;23.27;;;8.80;99.90;;;;;;5010582;28;20109;-61
2022/04/18 03:22:09;;;;;;;56.72;22.15;;;8.80;99.90;;;;;;5021276;28;20136;-62
2022/04/18 03:24:35;;;;;;;59.17;23.88;;;8.80;99.90;;;;;;5029939;28;20029;-62
2022/04/18 03:27:02;;;;;;;67.57;23.67;;;8.80;99.90;;;;;;5030010;28;20461;-61
2022/04/18 03:29:28;;;;;;;62.47;22.85;;;8.70;99.90;;;;;;5030070;28;20388;-61
2022/04/18 03:31:54;;;;;;;67.20;25.02;;;8.70;99.90;;;;;;5030165;28;20487;-61
2022/04/18 03:34:20;;;;;;;58.13;22.00;;;8.70;99.90;;;;;;5030224;28;20036;-61
2022/04/18 03:42:14;;;;;;;62.30;21.58;;;8.70;99.90;;;;;;5029760;28;20091;-61
2022/04/18 03:44:43;;;;;;;59.50;21.63;;;8.70;99.90;;;;;;5029946;28;20100;-62
2022/04/18 03:47:12;;;;;;;71.05;21.83;;;8.70;99.90;;;;;;5029967;28;20392;-61
2022/04/18 03:49:38;;;;;;;57.28;21.92;;;8.70;99.90;;;;;;5029792;28;20380;-61
2022/04/18 03:52:05;;;;;;;62.33;24.05;;;8.60;99.90;;;;;;5030056;28;20104;-61
2022/04/18 03:54:30;;;;;;;61.38;21.80;;;8.70;99.90;;;;;;5029583;28;20033;-61
2022/04/18 03:56:56;;;;;;;68.45;23.50;;;8.60;99.90;;;;;;5029821;28;20044;-61
2022/04/18 03:59:22;;;;;;;66.38;23.30;;;8.60;99.90;;;;;;5029921;28;20100;-61
2022/04/18 04:01:47;;;;;;;64.25;22.05;;;8.60;99.90;;;;;;5029666;28;20444;-61
2022/04/18 04:04:13;;;;;;;65.13;23.02;;;8.50;99.90;;;;;;5029798;28;20021;-61
2022/04/18 04:06:39;;;;;;;65.90;23.98;;;8.60;99.90;;;;;;5029883;28;20030;-62
2022/04/18 04:09:04;;;;;;;73.45;26.55;;;8.50;99.90;;;;;;5029562;28;20057;-63
2022/04/18 04:11:30;;;;;;;72.95;25.75;;;8.60;99.90;;;;;;5029815;28;20076;-61
2022/04/18 04:13:56;;;;;;;72.22;24.80;;;8.50;99.90;;;;;;5031825;28;20022;-61
2022/04/18 04:16:21;;;;;;;60.15;22.77;;;8.50;99.90;;;;;;5031862;28;20041;-61
2022/04/18 04:18:49;;;;;;;63.03;23.08;;;8.50;99.90;;;;;;5029277;28;20041;-61
2022/04/18 04:21:15;;;;;;;71.97;24.15;;;8.50;99.90;;;;;;5028914;28;20683;-61
2022/04/18 04:23:41;;;;;;;70.68;24.30;;;8.50;99.90;;;;;;5013618;28;20481;-61
2022/04/18 04:26:07;;;;;;;58.75;23.45;;;8.50;99.90;;;;;;5013684;28;20580;-61
2022/04/18 04:28:34;;;;;;;72.28;22.77;;;8.50;99.90;;;;;;5013750;28;20084;-63
2022/04/18 04:31:00;;;;;;;63.22;21.13;;;8.50;99.90;;;;;;5013216;28;20036;-62
2022/04/18 04:33:25;;;;;;;64.35;22.52;;;8.40;99.90;;;;;;5010547;28;20029;-63
2022/04/18 04:35:51;;;;;;;68.75;24.15;;;8.40;99.90;;;;;;5010578;28;20037;-63
2022/04/18 04:38:16;;;;;;;75.78;25.50;;;8.40;99.90;;;;;;5011043;28;20032;-63
2022/04/18 04:40:43;;;;;;;64.13;22.98;;;8.40;99.90;;;;;;5013382;28;20373;-62
2022/04/18 04:43:10;;;;;;;66.32;23.27;;;8.40;99.90;;;;;;5013350;28;20045;-62
2022/04/18 04:45:36;;;;;;;62.83;22.58;;;8.40;99.90;;;;;;5013590;28;20041;-62
2022/04/18 04:48:01;;;;;;;67.78;23.20;;;8.30;99.90;;;;;;5013737;28;20038;-62
2022/04/18 04:50:27;;;;;;;67.32;24.30;;;8.30;99.90;;;;;;5013289;28;20034;-62
2022/04/18 04:52:53;;;;;;;71.30;24.48;;;8.30;99.90;;;;;;5027611;28;20413;-63
2022/04/18 04:55:18;;;;;;;66.20;24.83;;;8.30;99.90;;;;;;5032723;28;20100;-62
2022/04/18 04:57:44;;;;;;;66.60;24.05;;;8.30;99.90;;;;;;5033001;28;20048;-63
2022/04/18 05:00:10;;;;;;;66.43;24.20;;;8.30;99.90;;;;;;5032884;28;20067;-62
2022/04/18 05:02:36;;;;;;;69.78;24.33;;;8.30;99.90;;;;;;5029856;28;20096;-62
2022/04/18 05:05:02;;;;;;;71.63;24.77;;;8.30;99.90;;;;;;5029981;28;20128;-62
2022/04/18 05:07:27;;;;;;;62.97;23.52;;;8.30;99.90;;;;;;5031111;28;20138;-63
2022/04/18 05:09:53;;;;;;;67.65;23.65;;;8.30;99.90;;;;;;5032903;28;20026;-63
2022/04/18 05:12:19;;;;;;;65.18;22.55;;;8.30;99.90;;;;;;5032682;28;20025;-63
2022/04/18 05:14:45;;;;;;;63.25;22.83;;;8.30;99.90;;;;;;5032890;28;20100;-63
2022/04/18 05:17:11;;;;;;;64.60;23.98;;;8.30;99.90;;;;;;5030014;28;20104;-69
2022/04/18 05:19:36;;;;;;;60.78;22.63;;;8.30;99.90;;;;;;5029355;28;20489;-62
2022/04/18 05:22:02;;;;;;;64.45;22.67;;;8.40;99.90;;;;;;5029577;28;20044;-63
2022/04/18 05:24:27;;;;;;;63.20;21.52;;;8.40;99.90;;;;;;5028836;28;20060;-63
2022/04/18 05:26:53;;;;;;;66.63;24.45;;;8.40;99.90;;;;;;5027441;28;20152;-63
2022/04/18 05:29:19;;;;;;;61.72;22.77;;;8.50;99.90;;;;;;5032596;28;20384;-63
2022/04/18 05:31:44;;;;;;;64.47;20.98;;;8.50;99.90;;;;;;5032374;28;20508;-62
2022/04/18 05:34:10;;;;;;;56.30;22.05;;;8.50;99.90;;;;;;5032554;28;20025;-63
2022/04/18 05:36:36;;;;;;;57.00;21.77;;;8.50;99.90;;;;;;5032198;28;20392;-62
2022/04/18 05:39:02;;;;;;;64.80;22.30;;;8.60;99.90;;;;;;5032105;28;20036;-62
2022/04/18 05:41:27;;;;;;;60.67;23.05;;;8.70;99.90;;;;;;5032388;28;20064;-62
2022/04/18 05:43:53;;;;;;;62.92;23.60;;;8.70;99.90;;;;;;5032552;28;20032;-62
2022/04/18 05:46:18;;;;;;;66.13;22.98;;;8.80;99.90;;;;;;5032165;28;20469;-63
2022/04/18 05:48:44;;;;;;;70.57;24.58;;;8.80;99.90;;;;;;5032130;28;20033;-62
2022/04/18 05:51:10;;;;;;;65.68;23.23;;;8.90;99.90;;;;;;5031394;28;20060;-61
2022/04/18 05:53:36;;;;;;;69.63;23.63;;;9.00;99.90;;;;;;5010623;28;20413;-61
2022/04/18 05:56:02;;;;;;;71.70;25.05;;;9.10;99.90;;;;;;5012062;28;20034;-61
2022/04/18 05:58:27;;;;;;;59.47;20.98;;;9.20;99.90;;;;;;5012384;28;20026;-61
2022/04/18 06:00:53;;;;;;;61.10;23.75;;;9.30;99.90;;;;;;5011358;28;20352;-61
2022/04/18 06:03:19;;;;;;;67.00;25.45;;;9.40;99.90;;;;;;5008870;28;20034;-61
2022/04/18 06:05:44;;;;;;;68.20;23.25;;;9.50;99.90;;;;;;5008868;28;20022;-61
2022/04/18 06:08:10;;;;;;;64.93;24.33;;;9.60;99.90;;;;;;5008673;28;20036;-61
2022/04/18 06:10:41;;;;;;;58.78;21.30;;;9.70;99.90;;;;;;5008532;28;20397;-61
2022/04/18 06:13:10;;;;;;;54.65;22.08;;;9.80;99.90;;;;;;5011972;28;20105;-61
2022/04/18 06:15:36;;;;;;;52.28;20.10;;;10.00;99.90;;;;;;5011709;28;20481;-61
2022/04/18 06:18:02;;;;;;;58.95;20.35;;;10.00;99.90;;;;;;5011668;28;20022;-61
2022/04/18 06:20:27;;;;;;;53.50;22.20;;;10.10;99.90;;;;;;5012159;28;20366;-61
2022/04/18 06:22:53;;;;;;;54.17;20.73;;;10.10;99.90;;;;;;5026106;28;20049;-61
2022/04/18 06:25:19;;;;;;;54.40;20.63;;;10.20;99.90;;;;;;5027980;28;20049;-61
2022/04/18 06:27:44;;;;;;;58.08;21.45;;;10.30;99.90;;;;;;5028489;28;20571;-61
2022/04/18 06:30:10;;;;;;;50.78;21.23;;;10.40;99.90;;;;;;5029064;28;20095;-61
2022/04/18 06:32:39;;;;;;;61.17;21.25;;;10.50;99.90;;;;;;5031177;28;20071;-61
2022/04/18 06:35:05;;;;;;;55.33;20.95;;;10.60;99.90;;;;;;5031195;28;20079;-61
2022/04/18 06:37:34;;;;;;;54.70;22.45;;;10.70;99.90;;;;;;5027522;28;20104;-61
2022/04/18 06:39:59;;;;;;;52.90;21.27;;;10.80;99.90;;;;;;5027603;28;20026;-61
2022/04/18 06:42:25;;;;;;;58.30;22.83;;;10.90;99.90;;;;;;5027011;28;20153;-61
2022/04/18 06:44:51;;;;;;;52.85;22.08;;;10.90;99.90;;;;;;5027648;28;20465;-61
2022/04/18 06:47:19;;;;;;;55.50;22.00;;;11.10;99.90;;;;;;5029447;28;20093;-61
2022/04/18 06:49:47;;;;;;;52.38;20.05;;;11.20;99.90;;;;;;5030819;28;20440;-61
2022/04/18 06:52:13;;;;;;;46.35;20.83;;;11.40;99.90;;;;;;5030977;28;20025;-61
2022/04/18 06:54:39;;;;;;;44.03;19.95;;;11.70;99.90;;;;;;5030861;28;20025;-61
2022/04/18 06:57:05;;;;;;;46.88;18.67;;;11.90;99.90;;;;;;5030784;28;20124;-61
2022/04/18 06:59:31;;;;;;;44.80;18.83;;;12.10;99.90;;;;;;5030731;28;20025;-61
2022/04/18 07:01:58;;;;;;;36.55;16.98;;;12.20;99.90;;;;;;5028902;28;20033;-61
2022/04/18 07:04:24;;;;;;;40.90;16.85;;;12.70;99.90;;;;;;5027484;28;20080;-61
2022/04/18 07:06:50;;;;;;;38.88;17.60;;;13.60;99.90;;;;;;5027811;28;20025;-61
2022/04/18 07:09:17;;;;;;;34.00;15.68;;;14.50;99.90;;;;;;5027055;28;20112;-62
2022/04/18 07:11:45;;;;;;;29.52;13.20;;;15.20;99.90;;;;;;5028480;28;20029;-61
2022/04/18 07:14:14;;;;;;;30.92;12.10;;;15.50;97.90;;;;;;5030587;28;20079;-61
2022/04/18 07:16:41;;;;;;;24.50;11.40;;;15.90;98.20;;;;;;5030430;28;20679;-61
2022/04/18 07:19:07;;;;;;;19.48;9.40;;;16.20;95.50;;;;;;5030388;28;20033;-61
2022/04/18 07:21:33;;;;;;;17.52;9.52;;;16.20;95.60;;;;;;5028193;28;20029;-61
2022/04/18 07:23:59;;;;;;;18.83;9.75;;;16.30;94.40;;;;;;5028888;28;20017;-61
2022/04/18 07:26:25;;;;;;;20.35;9.65;;;16.30;95.30;;;;;;5030083;28;20200;-61
2022/04/18 07:28:50;;;;;;;20.05;9.63;;;16.00;94.50;;;;;;5030088;28;20091;-62
2022/04/18 07:31:16;;;;;;;21.85;10.23;;;15.70;95.80;;;;;;5030417;28;20033;-61
2022/04/18 07:33:42;;;;;;;22.10;8.82;;;15.60;97.00;;;;;;5030272;28;20372;-62
2022/04/18 07:36:08;;;;;;;18.27;9.85;;;15.40;96.20;;;;;;5030178;28;20021;-61
2022/04/18 07:38:48;;;;;;;17.50;9.13;;;15.10;97.50;;;;;;5029866;28;20025;-61
2022/04/18 07:41:18;;;;;;;;;;;15.00;98.10;;;;;;5030197;28;20084;-61
2022/04/18 07:43:44;;;;;;;16.38;8.23;;;14.90;98.40;;;;;;5029887;28;19913;-63
2022/04/18 07:46:10;;;;;;;19.55;9.27;;;15.10;98.50;;;;;;5025006;28;20022;-61
2022/04/18 07:48:36;;;;;;;18.70;9.30;;;15.30;97.80;;;;;;5026847;28;20030;-61
2022/04/18 07:53:46;;;;;;;20.40;9.35;;;16.30;94.60;;;;;;5028114;28;20040;-61
2022/04/18 07:56:11;;;;;;;16.23;7.38;;;16.90;90.80;;;;;;5029692;28;20025;-62
2022/04/18 07:58:37;;;;;;;13.50;6.82;;;17.20;86.30;;;;;;5027698;28;20030;-62
2022/04/18 08:01:03;;;;;;;14.90;7.00;;;17.50;83.10;;;;;;5025417;28;20025;-62
2022/04/18 08:03:32;;;;;;;15.40;7.82;;;17.70;80.70;;;;;;5026739;28;20396;-62
2022/04/18 08:05:58;;;;;;;15.18;6.90;;;17.70;78.30;;;;;;5027349;28;20021;-62
2022/04/18 08:08:24;;;;;;;20.55;7.80;;;17.90;76.70;;;;;;5029348;28;20072;-63
2022/04/18 08:10:50;;;;;;;12.75;6.47;;;17.90;75.30;;;;;;5029470;28;20112;-62
2022/04/18 08:13:16;;;;;;;17.13;8.10;;;17.90;73.40;;;;;;5029807;28;20112;-62
2022/04/18 08:15:41;;;;;;;16.70;8.10;;;18.10;75.60;;;;;;5026504;28;20473;-62
2022/04/18 08:18:07;;;;;;;12.45;6.88;;;18.30;75.30;;;;;;5010196;28;20057;-62
2022/04/18 08:20:33;;;;;;;13.45;7.68;;;18.10;71.90;;;;;;5009872;28;20432;-65
2022/04/18 08:22:59;;;;;;;14.90;7.88;;;18.20;73.20;;;;;;5009281;28;20030;-63
2022/04/18 08:25:25;;;;;;;16.40;7.65;;;18.50;73.40;;;;;;5009669;28;20046;-63
2022/04/18 08:27:51;;;;;;;17.48;9.10;;;18.60;70.50;;;;;;5010059;28;20035;-62
2022/04/18 08:30:16;;;;;;;16.98;7.45;;;18.90;71.50;;;;;;5009961;28;20030;-65
2022/04/18 08:32:42;;;;;;;13.90;7.30;;;19.30;69.00;;;;;;5009847;28;20116;-63
2022/04/18 08:35:09;;;;;;;15.77;7.30;;;19.40;64.60;;;;;;5009816;28;20053;-62
2022/04/18 08:37:35;;;;;;;14.25;8.02;;;19.30;63.20;;;;;;5009583;28;20070;-63
2022/04/18 08:40:02;;;;;;;14.23;7.97;;;19.40;63.20;;;;;;5009453;28;20088;-63
2022/04/18 08:42:33;;;;;;;15.27;7.75;;;19.50;61.80;;;;;;5009421;28;20029;-64
2022/04/18 08:45:02;;;;;;;13.93;7.60;;;19.50;61.50;;;;;;5008932;28;20026;-64
2022/04/18 08:52:57;;;;;;;16.45;7.70;;;19.90;56.90;;;;;;5020007;28;20055;-62
2022/04/18 08:55:23;;;;;;;12.13;6.18;;;20.10;56.00;;;;;;5026203;28;20439;-61
2022/04/18 08:57:49;;;;;;;12.63;6.93;;;20.90;50.80;;;;;;5028850;28;20038;-62
2022/04/18 09:00:15;;;;;;;14.05;7.05;;;21.00;44.70;;;;;;5031597;28;20387;-63
2022/04/18 09:02:40;;;;;;;13.80;7.30;;;20.90;46.50;;;;;;5030355;28;20037;-63
2022/04/18 09:05:15;;;;;;;11.98;7.13;;;21.10;47.10;;;;;;5022311;28;20053;-62
2022/04/18 09:07:56;;;;;;;11.68;6.05;;;21.40;47.40;;;;;;5021971;28;20084;-62
2022/04/18 09:10:24;;;;;;;;;;;21.80;45.80;;;;;;5021570;28;20025;-62
2022/04/18 09:12:51;;;;;;;11.15;5.47;;;21.60;44.60;;;;;;5032374;28;20387;-64
2022/04/18 09:15:39;;;;;;;9.75;6.00;;;22.10;41.70;;;;;;5032804;28;20040;-65
2022/04/18 09:18:08;;;;;;;11.32;6.20;;;22.60;36.10;;;;;;5033073;28;20029;-65
2022/04/18 09:20:55;;;;;;;10.80;6.13;;;23.10;37.50;;;;;;5032847;28;20075;-65
2022/04/18 09:23:23;;;;;;;9.85;5.65;;;23.50;35.50;;;;;;5032157;28;20388;-64
2022/04/18 09:26:04;;;;;;;9.68;5.40;;;23.30;33.60;;;;;;5032403;28;20041;-64
2022/04/18 09:28:37;;;;;;;10.90;5.68;;;23.70;32.70;;;;;;5029342;28;20029;-63
2022/04/18 09:31:09;;;;;;;11.32;5.75;;;24.00;32.30;;;;;;5032678;28;20024;-63
2022/04/18 09:33:38;;;;;;;11.13;5.22;;;23.80;27.90;;;;;;5032304;28;20125;-65
2022/04/18 09:36:18;;;;;;;13.38;5.90;;;24.20;27.80;;;;;;5032395;28;20031;-65
2022/04/18 09:38:49;;;;;;;9.13;5.13;;;24.60;26.00;;;;;;5031992;28;20017;-66
2022/04/18 09:41:20;;;;;;;9.18;5.45;;;24.40;25.70;;;;;;5030748;28;20388;-65
2022/04/18 09:43:48;;;;;;;10.63;5.30;;;24.60;27.60;;;;;;5032125;28;20038;-65
2022/04/18 09:46:14;;;;;;;8.02;4.43;;;25.30;26.80;;;;;;5032196;28;20025;-65
2022/04/18 09:48:42;;;;;;;8.98;5.28;;;25.90;24.90;;;;;;5032289;28;20064;-65
2022/04/18 09:51:16;;;;;;;7.45;4.57;;;26.30;23.30;;;;;;5032038;28;20025;-66
2022/04/18 09:53:46;;;;;;;7.47;4.28;;;26.20;22.40;;;;;;5031843;28;20056;-67
2022/04/18 09:56:17;;;;;;;10.45;4.63;;;27.00;20.80;;;;;;5031956;28;20033;-67
2022/04/18 09:58:43;;;;;;;8.48;4.43;;;27.60;19.00;;;;;;5031922;28;20480;-67
2022/04/18 10:01:10;;;;;;;10.52;4.70;;;28.20;20.60;;;;;;5030188;28;20033;-66
2022/04/18 10:03:37;;;;;;;7.20;4.10;;;27.90;19.30;;;;;;5028672;28;20045;-65
2022/04/18 10:06:04;;;;;;;7.68;4.40;;;27.30;20.40;;;;;;5029316;28;20120;-60
2022/04/18 10:08:30;;;;;;;8.68;3.80;;;27.40;19.60;;;;;;5031734;28;20036;-62
2022/04/18 10:10:58;;;;;;;8.10;4.07;;;26.70;19.00;;;;;;5030707;28;20029;-62
2022/04/18 10:13:25;;;;;;;7.13;2.85;;;26.60;20.50;;;;;;5031287;28;20029;-63
2022/04/18 10:15:52;;;;;;;4.68;2.78;;;26.90;18.40;;;;;;5031574;28;20579;-63
2022/04/18 10:18:18;;;;;;;5.57;2.78;;;26.80;18.40;;;;;;5031418;28;20051;-63
2022/04/18 10:21:08;;;;;;;5.60;3.05;;;26.70;18.90;;;;;;5031617;28;20053;-63
2022/04/18 10:23:58;;;;;;;5.43;2.60;;;27.00;17.90;;;;;;5022006;28;20036;-63
2022/04/18 10:26:47;;;;;;;5.93;2.60;;;28.60;16.80;;;;;;5031212;28;20049;-63
2022/04/18 10:29:22;;;;;;;3.45;1.42;;;29.80;15.10;;;;;;5031507;28;20080;-62
2022/04/18 10:31:52;;;;;;;6.35;2.53;;;30.40;11.50;;;;;;5031290;28;20028;-64
2022/04/18 10:34:22;;;;;;;3.05;1.80;;;31.30;12.20;;;;;;5031217;28;20512;-64
2022/04/18 10:36:52;;;;;;;5.10;2.30;;;32.10;10.50;;;;;;5029998;28;20049;-64
2022/04/18 10:39:19;;;;;;;5.72;3.15;;;32.00;10.50;;;;;;5031001;28;20025;-63
2022/04/18 10:41:47;;;;;;;4.15;2.30;;;32.70;11.80;;;;;;5031150;28;20037;-63
2022/04/18 10:44:17;;;;;;;5.30;2.72;;;33.10;11.00;;;;;;5031052;28;20120;-64
2022/04/18 10:47:06;;;;;;;;;;;33.30;10.80;;;;;;5031689;28;20048;-63
2022/04/18 10:49:32;;;;;;;3.78;2.38;;;32.60;10.30;;;;;;5030862;28;20309;-63
2022/04/18 10:52:05;;;;;;;3.78;2.15;;;31.80;9.40;;;;;;5030858;28;20175;-64
2022/04/18 10:54:31;;;;;;;4.70;1.98;;;32.70;10.30;;;;;;5031037;28;20029;-63
2022/04/18 10:57:05;;;;;;;7.43;1.20;;;32.50;10.70;;;;;;5030884;28;20025;-62
2022/04/18 10:59:31;;;;;;;1.80;0.98;;;32.40;9.90;;;;;;5030672;28;20055;-62
2022/04/18 11:01:59;;;;;;;3.33;1.13;;;32.00;9.80;;;;;;5030666;28;20045;-63
2022/04/18 11:04:26;;;;;;;2.35;1.20;;;32.20;10.30;;;;;;5030729;28;20039;-63
2022/04/18 11:07:02;;;;;;;3.17;1.10;;;32.50;9.60;;;;;;5030875;28;20028;-63
2022/04/18 11:09:29;;;;;;;1.92;1.00;;;32.80;8.80;;;;;;5030755;28;20083;-63
2022/04/18 11:12:12;;;;;;;3.47;1.33;;;32.30;8.60;;;;;;5030718;28;20069;-64
2022/04/18 11:14:38;;;;;;;2.47;1.10;;;31.10;8.90;;;;;;5027541;28;20032;-64
2022/04/18 11:17:05;;;;;;;2.10;1.08;;;30.70;10.40;;;;;;5026206;28;20029;-64
2022/04/18 11:19:39;;;;;;;4.05;1.23;;;29.40;10.40;;;;;;5025538;28;20796;-63
2022/04/18 11:22:07;;;;;;;2.08;1.05;;;29.10;12.20;;;;;;5018663;28;20030;-64
2022/04/18 11:24:51;;;;;;;3.75;1.17;;;27.80;12.20;;;;;;5007744;28;20050;-63
2022/04/18 11:27:25;;;;;;;2.45;1.00;;;26.80;13.80;;;;;;5007609;28;20037;-63
2022/04/18 11:29:57;;;;;;;3.67;1.30;;;26.60;14.10;;;;;;5007733;28;20550;-62
2022/04/18 11:32:28;;;;;;;2.88;1.25;;;27.30;14.30;;;;;;5007464;28;20120;-63
2022/04/18 11:34:55;;;;;;;3.10;1.15;;;27.60;14.40;;;;;;5007520;28;20041;-61
2022/04/18 11:37:24;;;;;;;3.38;1.02;;;27.80;11.90;;;;;;5007689;28;20017;-63
2022/04/18 11:39:52;;;;;;;2.28;1.05;;;28.70;13.10;;;;;;5007418;28;20032;-64
2022/04/18 11:42:19;;;;;;;4.53;1.10;;;28.70;12.20;;;;;;5007024;28;20040;-64
2022/04/18 11:44:47;;;;;;;1.75;1.02;;;27.80;10.50;;;;;;5007802;28;20030;-64
2022/04/18 11:47:15;;;;;;;3.75;0.95;;;28.90;10.90;;;;;;5007452;28;20505;-65
2022/04/18 11:49:42;;;;;;;2.25;0.80;;;29.80;11.00;;;;;;5007170;28;20030;-65
2022/04/18 11:52:21;;;;;;;2.28;0.70;;;29.30;11.20;;;;;;5007447;28;20084;-63
2022/04/18 11:54:54;;;;;;;1.33;0.68;;;28.90;10.70;;;;;;5007058;28;20099;-63
2022/04/18 11:57:19;;;;;;;0.80;0.70;;;28.80;11.60;;;;;;5007274;28;20125;-65
2022/04/18 11:59:46;;;;;;;3.13;1.00;;;28.70;12.50;;;;;;5007051;28;20132;-64
2022/04/18 12:08:04;;;;;;;1.70;0.88;;;29.10;12.60;;;;;;4984466;28;20386;-62
2022/04/18 12:10:32;;;;;;;2.15;1.00;;;29.40;12.40;;;;;;4985035;28;20035;-63
2022/04/18 12:12:59;;;;;;;2.22;1.00;;;28.20;11.40;;;;;;4995414;28;20034;-64
2022/04/18 12:15:27;;;;;;;3.00;1.30;;;28.40;13.00;;;;;;5009147;28;20036;-63
2022/04/18 12:17:55;;;;;;;4.70;1.30;;;29.00;12.80;;;;;;5006964;28;20068;-63
2022/04/18 12:20:28;;;;;;;3.88;1.25;;;27.80;12.60;;;;;;5006805;28;20485;-63
2022/04/18 12:22:59;;;;;;;3.47;1.20;;;28.10;12.60;;;;;;5006774;28;20096;-62
2022/04/18 12:25:29;;;;;;;2.80;1.52;;;27.50;12.00;;;;;;5006807;28;20034;-62
2022/04/18 12:27:56;;;;;;;4.88;1.40;;;27.60;13.30;;;;;;5005615;28;20026;-61
2022/04/18 12:30:22;;;;;;;5.88;2.33;;;28.50;14.80;;;;;;5007229;28;20033;-61
2022/04/18 12:32:48;;;;;;;1.90;1.00;;;27.00;15.10;;;;;;5007251;28;20358;-62
2022/04/18 12:35:16;;;;;;;2.20;0.90;;;26.90;13.50;;;;;;5009597;28;20057;-63
2022/04/18 12:37:46;;;;;;;2.42;0.98;;;26.90;12.20;;;;;;5010877;28;20033;-64
2022/04/18 12:40:16;;;;;;;3.47;0.80;;;27.00;13.40;;;;;;5010551;28;20030;-64
2022/04/18 12:42:50;;;;;;;3.08;1.25;;;27.30;13.60;;;;;;5010257;28;20045;-63
2022/04/18 12:45:16;;;;;;;2.70;1.00;;;26.60;12.20;;;;;;5010665;28;20846;-65
2022/04/18 12:47:42;;;;;;;2.47;0.98;;;26.50;12.30;;;;;;5010457;28;20030;-63
2022/04/18 12:50:16;;;;;;;6.75;3.30;;;25.70;12.40;;;;;;5010496;28;20030;-64
2022/04/18 12:52:51;;;;;;;9.05;3.40;;;25.50;18.30;;;;;;5010101;28;20488;-63
2022/04/18 12:55:29;;;;;;;5.88;3.40;;;24.90;19.80;;;;;;5010765;28;20025;-63
2022/04/18 12:57:54;;;;;;;7.30;3.38;;;24.50;20.70;;;;;;5010576;28;20036;-63
2022/04/18 13:00:21;;;;;;;7.68;3.10;;;24.80;20.50;;;;;;5010638;28;20101;-64
2022/04/18 13:03:17;;;;;;;7.50;3.05;;;24.30;21.20;;;;;;5010299;28;20034;-64
2022/04/18 13:05:44;;;;;;;6.35;3.10;;;24.70;21.50;;;;;;5001332;28;20048;-65
2022/04/18 13:08:11;;;;;;;7.00;3.72;;;23.80;22.50;;;;;;5010408;28;20310;-63